Time;durP1;ratioP1;P1;durP2;ratioP2;P2;SDS_P1;SDS_P2;PMS_P1;PMS_P2;Temp;Humidity;BMP_temperature;BMP_pressure;BME280_temperature;BME280_humidity;BME280_pressure;Samples;Min_cycle;Max_cycle;Signal;HPM_P1;HPM_P2
2021/01/22 00:02:09;;;;;;;33.35;19.38;;;;;;;1.02;100.00;94609.91;5007650;28;20499;-50
2021/01/22 00:04:36;;;;;;;25.95;16.15;;;;;;;0.96;100.00;94621.63;5006715;28;20551;-47
2021/01/22 00:07:03;;;;;;;29.75;17.08;;;;;;;0.85;100.00;94612.19;5006574;28;20104;-49
2021/01/22 00:09:31;;;;;;;34.28;18.30;;;;;;;0.93;100.00;94612.34;5007963;28;20106;-49
2021/01/22 00:11:58;;;;;;;32.38;19.30;;;;;;;1.03;100.00;94595.97;5015583;28;20116;-46
2021/01/22 00:14:25;;;;;;;28.88;18.83;;;;;;;1.03;100.00;94603.75;5005728;28;20088;-49
2021/01/22 00:16:51;;;;;;;33.58;18.52;;;;;;;0.88;100.00;94598.94;5008388;28;20042;-50
2021/01/22 00:19:19;;;;;;;32.83;19.27;;;;;;;0.92;100.00;94621.06;5005609;28;20080;-46
2021/01/22 00:21:46;;;;;;;33.05;18.63;;;;;;;1.05;100.00;94640.78;5007618;28;20069;-50
2021/01/22 00:24:13;;;;;;;25.60;14.95;;;;;;;0.62;100.00;94678.13;5006071;28;20432;-49
2021/01/22 00:26:41;;;;;;;24.00;14.13;;;;;;;0.82;100.00;94682.47;5010341;28;20456;-51
2021/01/22 00:29:07;;;;;;;28.70;16.30;;;;;;;0.97;100.00;94667.41;5006897;28;20076;-47
2021/01/22 00:31:35;;;;;;;26.25;16.02;;;;;;;1.06;100.00;94683.94;5008582;28;20057;-47
2021/01/22 00:34:02;;;;;;;25.15;14.40;;;;;;;1.08;100.00;94695.84;5005557;28;20069;-49
2021/01/22 00:36:29;;;;;;;32.97;17.33;;;;;;;1.18;100.00;94694.13;5009361;28;20050;-50
2021/01/22 00:38:56;;;;;;;30.48;16.45;;;;;;;1.29;100.00;94687.19;5009063;28;20124;-50
2021/01/22 00:41:23;;;;;;;29.33;16.77;;;;;;;1.40;100.00;94676.69;5007531;28;20037;-48
2021/01/22 00:43:51;;;;;;;29.13;17.63;;;;;;;1.44;100.00;94678.06;5006714;28;20435;-52
2021/01/22 00:46:18;;;;;;;31.95;18.20;;;;;;;1.42;100.00;94670.41;5005752;28;20062;-53
2021/01/22 00:48:45;;;;;;;30.35;17.83;;;;;;;1.43;100.00;94681.63;5006616;28;20046;-51
2021/01/22 00:51:12;;;;;;;29.15;17.60;;;;;;;1.41;100.00;94699.09;5005407;28;20038;-50
2021/01/22 00:53:39;;;;;;;30.83;18.50;;;;;;;1.44;100.00;94693.66;4999017;28;20047;-48
2021/01/22 00:56:07;;;;;;;28.23;17.85;;;;;;;1.37;100.00;94682.16;4999143;28;20046;-52
2021/01/22 00:58:35;;;;;;;28.40;17.58;;;;;;;1.46;100.00;94676.16;5007221;28;20132;-48
2021/01/22 01:01:26;;;;;;;28.90;15.85;;;;;;;1.60;100.00;94673.19;5002532;28;20416;-46
2021/01/22 01:03:57;;;;;;;31.95;17.95;;;;;;;1.66;100.00;94667.47;5007345;28;20104;-47
2021/01/22 01:06:25;;;;;;;25.20;15.60;;;;;;;1.60;100.00;94662.78;5003940;28;20130;-48
2021/01/22 01:08:55;;;;;;;24.80;15.90;;;;;;;1.54;100.00;94645.13;5009359;28;20050;-49
2021/01/22 01:11:42;;;;;;;22.58;14.40;;;;;;;1.80;100.00;94645.47;5003487;28;20042;-49
2021/01/22 01:14:16;;;;;;;28.58;15.02;;;;;;;1.79;100.00;94643.81;5004346;28;20049;-47
2021/01/22 01:16:45;;;;;;;25.13;15.77;;;;;;;1.79;100.00;94633.44;5006194;28;20099;-48
2021/01/22 01:19:12;;;;;;;22.00;15.18;;;;;;;1.86;100.00;94625.91;4999708;28;20627;-47
2021/01/22 01:21:39;;;;;;;24.48;15.88;;;;;;;1.83;100.00;94615.78;5004595;28;20046;-47
2021/01/22 01:24:06;;;;;;;25.77;16.52;;;;;;;1.84;100.00;94614.81;5011379;28;20037;-47
2021/01/22 01:26:33;;;;;;;25.73;15.18;;;;;;;1.96;99.93;94615.50;5004685;28;20059;-47
2021/01/22 01:29:01;;;;;;;26.10;15.55;;;;;;;2.04;98.22;94615.63;5008444;28;20050;-46
2021/01/22 01:31:28;;;;;;;21.38;13.63;;;;;;;1.97;98.07;94601.56;5004409;28;20104;-47
2021/01/22 01:33:57;;;;;;;23.58;13.63;;;;;;;1.88;99.68;94601.41;5008683;28;20730;-51
2021/01/22 01:36:23;;;;;;;22.15;13.45;;;;;;;1.93;99.56;94584.56;4999803;28;20042;-48
2021/01/22 01:38:50;;;;;;;25.85;15.57;;;;;;;1.83;100.00;94589.81;5008009;28;20458;-49
2021/01/22 01:41:18;;;;;;;26.88;16.13;;;;;;;1.51;100.00;94595.25;5004875;28;20451;-52
2021/01/22 01:43:44;;;;;;;26.70;16.63;;;;;;;1.51;100.00;94606.44;5007345;28;20038;-50
2021/01/22 01:46:12;;;;;;;28.13;16.90;;;;;;;1.32;100.00;94598.66;5005381;28;20042;-52
2021/01/22 01:48:39;;;;;;;26.73;17.25;;;;;;;1.31;100.00;94597.84;5007377;28;20045;-46
2021/01/22 01:51:07;;;;;;;24.98;15.30;;;;;;;1.29;100.00;94584.16;5006388;28;20045;-49
2021/01/22 01:53:33;;;;;;;25.88;15.88;;;;;;;1.28;100.00;94598.09;5006738;28;20045;-48
2021/01/22 01:56:02;;;;;;;25.42;16.05;;;;;;;1.42;100.00;94595.13;5006860;28;20041;-50
2021/01/22 01:58:30;;;;;;;28.25;16.42;;;;;;;1.40;100.00;94596.19;5005093;28;20046;-47
2021/01/22 02:00:57;;;;;;;22.42;14.63;;;;;;;1.62;100.00;94608.94;5021124;28;20053;-47
2021/01/22 02:03:24;;;;;;;23.15;13.13;;;;;;;1.70;100.00;94618.66;5004737;28;20420;-49
2021/01/22 02:05:51;;;;;;;22.88;13.30;;;;;;;1.82;100.00;94603.72;5009316;28;20053;-47
2021/01/22 02:08:19;;;;;;;20.98;12.43;;;;;;;1.98;100.00;94604.00;5007173;28;20045;-52
2021/01/22 02:10:46;;;;;;;19.60;12.40;;;;;;;1.94;99.07;94592.25;5010333;28;20116;-47
2021/01/22 02:13:14;;;;;;;20.50;12.63;;;;;;;1.91;99.70;94584.72;5011415;28;20065;-50
2021/01/22 02:15:42;;;;;;;18.67;11.63;;;;;;;1.94;99.24;94579.25;5010425;28;20052;-49
2021/01/22 02:18:10;;;;;;;17.90;11.00;;;;;;;2.12;98.31;94587.97;5008566;28;20056;-50
2021/01/22 02:20:53;;;;;;;19.98;11.15;;;;;;;2.19;96.99;94574.44;5010423;28;20089;-51
2021/01/22 02:23:23;;;;;;;20.35;10.50;;;;;;;2.28;97.25;94584.00;5005613;28;20033;-47
2021/01/22 02:25:50;;;;;;;18.48;11.23;;;;;;;2.33;96.37;94568.78;5011636;28;20132;-52
2021/01/22 02:28:19;;;;;;;18.98;9.60;;;;;;;2.45;95.70;94582.44;4999554;28;20041;-50
2021/01/22 02:30:48;;;;;;;18.23;10.82;;;;;;;2.36;97.14;94582.31;5008243;28;20050;-48
2021/01/22 02:33:17;;;;;;;17.77;10.50;;;;;;;2.32;97.30;94588.75;5007996;28;20578;-46
2021/01/22 02:35:46;;;;;;;16.13;10.40;;;;;;;2.30;98.48;94621.88;5011515;28;20046;-47
2021/01/22 02:38:13;;;;;;;18.00;9.73;;;;;;;2.07;100.00;94644.78;5009156;28;20085;-48
2021/01/22 02:40:43;;;;;;;16.55;10.32;;;;;;;2.09;100.00;94632.44;5009925;28;20041;-49
2021/01/22 02:43:10;;;;;;;14.60;9.60;;;;;;;2.22;100.00;94639.16;4999023;28;20151;-46
2021/01/22 02:45:38;;;;;;;16.40;10.02;;;;;;;2.28;100.00;94625.59;5010072;28;20119;-48
2021/01/22 02:48:06;;;;;;;17.13;9.82;;;;;;;2.25;99.59;94625.88;5007427;28;20048;-45
2021/01/22 02:50:35;;;;;;;16.80;10.50;;;;;;;2.15;100.00;94636.28;5009463;28;20046;-49
2021/01/22 02:53:03;;;;;;;21.60;9.60;;;;;;;2.32;98.07;94617.38;5009976;28;20054;-47
2021/01/22 02:55:30;;;;;;;16.05;9.15;;;;;;;2.50;95.42;94625.28;5007128;28;20443;-50
2021/01/22 02:58:00;;;;;;;17.00;10.23;;;;;;;2.48;94.90;94606.41;5011441;28;20045;-50
2021/01/22 03:00:30;;;;;;;19.42;10.43;;;;;;;2.26;97.63;94620.53;5008506;28;20049;-49
2021/01/22 03:03:04;;;;;;;16.70;10.07;;;;;;;2.20;99.39;94641.06;5004879;28;20053;-47
2021/01/22 03:05:33;;;;;;;16.23;9.57;;;;;;;2.22;98.86;94636.56;5007538;28;20076;-49
2021/01/22 03:08:03;;;;;;;16.13;10.25;;;;;;;2.20;98.95;94617.66;5009314;28;20108;-50
2021/01/22 03:10:31;;;;;;;17.27;9.75;;;;;;;2.16;99.76;94619.72;5006920;28;20049;-51
2021/01/22 03:12:58;;;;;;;17.50;10.45;;;;;;;2.23;99.63;94628.59;5009039;28;20172;-49
2021/01/22 03:15:25;;;;;;;15.77;10.20;;;;;;;2.20;99.84;94654.88;5003249;28;20045;-48
2021/01/22 03:18:09;;;;;;;14.95;9.13;;;;;;;2.11;99.80;94684.31;5010816;28;20077;-52
2021/01/22 03:20:36;;;;;;;14.95;9.63;;;;;;;2.13;100.00;94674.59;5001909;28;20118;-49
2021/01/22 03:23:04;;;;;;;15.15;9.27;;;;;;;2.18;100.00;94676.78;5007207;28;20053;-47
2021/01/22 03:25:31;;;;;;;16.05;9.38;;;;;;;2.21;100.00;94681.72;5005395;28;20042;-49
2021/01/22 03:27:58;;;;;;;15.57;9.35;;;;;;;2.12;100.00;94672.97;5002826;28;20121;-48
2021/01/22 03:30:25;;;;;;;13.55;8.50;;;;;;;2.21;100.00;94676.53;5005283;28;20053;-49
2021/01/22 03:32:52;;;;;;;12.60;7.72;;;;;;;2.33;99.53;94672.81;5005797;28;20048;-52
2021/01/22 03:35:20;;;;;;;14.38;8.25;;;;;;;2.33;99.80;94684.03;4999939;28;20080;-49
2021/01/22 03:37:47;;;;;;;11.40;6.82;;;;;;;2.55;97.66;94685.53;5006175;28;20073;-49
2021/01/22 03:40:15;;;;;;;9.50;5.75;;;;;;;2.82;94.79;94690.00;5002080;28;20046;-53
2021/01/22 03:42:43;;;;;;;9.57;5.55;;;;;;;2.97;93.14;94690.34;5004339;28;20041;-49
2021/01/22 03:45:11;;;;;;;10.50;5.80;;;;;;;3.07;92.64;94688.53;5001244;28;20042;-48
2021/01/22 03:47:38;;;;;;;11.65;5.75;;;;;;;3.19;90.67;94683.94;5002686;28;20061;-51
2021/01/22 03:50:06;;;;;;;10.75;5.70;;;;;;;3.21;90.11;94687.25;5003944;28;20508;-49
2021/01/22 03:52:34;;;;;;;8.38;5.20;;;;;;;3.33;88.51;94669.63;5001588;28;20137;-53
2021/01/22 03:55:01;;;;;;;8.85;4.80;;;;;;;3.37;88.24;94678.78;5006784;28;20053;-53
2021/01/22 03:57:28;;;;;;;7.82;4.95;;;;;;;3.37;88.95;94678.78;4999624;28;20173;-50
2021/01/22 03:59:55;;;;;;;10.55;5.03;;;;;;;3.33;88.64;94669.63;5004788;28;20053;-49
2021/01/22 04:02:22;;;;;;;10.57;4.80;;;;;;;3.38;88.67;94671.84;5003763;28;20042;-52
2021/01/22 04:04:49;;;;;;;7.57;4.45;;;;;;;3.50;87.33;94666.25;4997728;28;20046;-49
2021/01/22 04:07:16;;;;;;;5.68;3.92;;;;;;;3.79;84.92;94657.47;5006662;28;20112;-50
2021/01/22 04:09:44;;;;;;;6.80;4.25;;;;;;;3.99;83.43;94648.53;5009251;28;20116;-52
2021/01/22 04:12:10;;;;;;;7.20;4.03;;;;;;;4.04;83.50;94651.50;5001960;28;20378;-47
2021/01/22 04:14:38;;;;;;;7.57;3.60;;;;;;;4.25;81.84;94648.59;5008272;28;20144;-47
2021/01/22 04:17:05;;;;;;;6.72;3.90;;;;;;;4.34;81.68;94646.88;5004049;28;20060;-47
2021/01/22 04:19:32;;;;;;;5.72;3.60;;;;;;;4.43;80.66;94643.34;5011511;28;20096;-50
2021/01/22 04:21:59;;;;;;;6.28;3.58;;;;;;;4.47;80.28;94639.47;5009817;28;20046;-48
2021/01/22 04:24:27;;;;;;;6.40;3.67;;;;;;;4.53;80.50;94644.06;5007746;28;20092;-47
2021/01/22 04:26:55;;;;;;;5.13;2.67;;;;;;;4.91;78.87;94636.78;5008448;28;20042;-46
2021/01/22 04:29:22;;;;;;;4.90;2.72;;;;;;;4.96;78.25;94634.56;5001261;28;20080;-49
2021/01/22 04:31:49;;;;;;;3.55;2.40;;;;;;;5.07;78.67;94625.63;5005303;28;20566;-50
2021/01/22 04:34:16;;;;;;;2.92;1.90;;;;;;;5.34;78.02;94622.00;5003102;28;20125;-47
2021/01/22 04:36:42;;;;;;;3.28;2.20;;;;;;;5.35;77.44;94620.19;5008060;28;20038;-47
2021/01/22 04:39:10;;;;;;;2.97;1.85;;;;;;;5.41;77.35;94607.31;5002107;28;20125;-49
2021/01/22 04:41:37;;;;;;;3.70;1.85;;;;;;;5.40;77.42;94597.84;5004303;28;20128;-47
2021/01/22 04:44:05;;;;;;;2.58;1.67;;;;;;;5.43;77.58;94597.50;5005344;28;20046;-47
2021/01/22 04:46:33;;;;;;;3.53;1.85;;;;;;;5.41;77.45;94581.16;4997780;28;20045;-49
2021/01/22 04:49:00;;;;;;;2.60;1.52;;;;;;;5.57;77.67;94575.16;4997696;28;20109;-48
2021/01/22 04:51:30;;;;;;;3.83;1.50;;;;;;;5.56;77.65;94577.94;4997228;28;20057;-49
2021/01/22 04:54:01;;;;;;;3.53;1.65;;;;;;;5.56;77.89;94575.31;5006522;28;20107;-47
2021/01/22 04:56:30;;;;;;;2.55;1.50;;;;;;;5.60;78.25;94574.00;5003102;28;20049;-51
2021/01/22 04:58:57;;;;;;;4.40;1.48;;;;;;;5.61;78.21;94578.25;5006710;28;20080;-48
2021/01/22 05:01:25;;;;;;;1.75;1.27;;;;;;;5.54;78.39;94582.50;5007177;28;20077;-50
2021/01/22 05:03:53;;;;;;;2.40;1.33;;;;;;;5.46;78.87;94578.88;5006702;28;20100;-53
2021/01/22 05:06:19;;;;;;;2.80;1.45;;;;;;;5.47;79.04;94580.53;5008102;28;20512;-49
2021/01/22 05:08:47;;;;;;;3.17;1.25;;;;;;;5.59;78.33;94570.59;5010126;28;20077;-52
2021/01/22 05:11:14;;;;;;;2.60;1.20;;;;;;;5.59;78.78;94567.97;5007045;28;20108;-50
2021/01/22 05:13:41;;;;;;;1.95;1.10;;;;;;;5.56;78.85;94568.28;5006673;28;20068;-47
2021/01/22 05:16:08;;;;;;;2.05;1.00;;;;;;;5.55;78.37;94563.25;5007624;28;20038;-48
2021/01/22 05:18:37;;;;;;;2.28;1.20;;;;;;;5.54;79.18;94549.34;5009946;28;20081;-48
2021/01/22 05:21:06;;;;;;;1.75;1.00;;;;;;;5.57;79.12;94551.63;5006280;28;20042;-47
2021/01/22 05:23:34;;;;;;;1.90;1.02;;;;;;;5.59;79.21;94541.00;5007457;28;20085;-47
2021/01/22 05:26:04;;;;;;;1.70;1.08;;;;;;;5.46;79.73;94551.94;5004511;28;20128;-48
2021/01/22 05:28:33;;;;;;;2.03;1.20;;;;;;;5.40;79.95;94548.19;5007292;28;20046;-48
2021/01/22 05:31:01;;;;;;;2.33;1.27;;;;;;;5.38;79.95;94544.09;5005457;28;20377;-51
2021/01/22 05:33:29;;;;;;;3.03;1.30;;;;;;;5.31;80.72;94537.88;5007789;28;20125;-53
2021/01/22 05:35:56;;;;;;;2.33;1.40;;;;;;;5.32;80.75;94547.31;5006871;28;20074;-50
2021/01/22 05:38:38;;;;;;;3.25;1.42;;;;;;;5.26;80.77;94545.34;5007366;28;20068;-48
2021/01/22 05:41:07;;;;;;;2.58;1.48;;;;;;;5.18;81.68;94553.97;5002488;28;20045;-47
2021/01/22 05:43:37;;;;;;;1.92;1.10;;;;;;;5.12;81.53;94550.19;5007263;28;20120;-48
2021/01/22 05:46:12;;;;;;;2.53;1.10;;;;;;;5.12;81.80;94557.22;5005636;28;20065;-48
2021/01/22 05:48:39;;;;;;;2.78;1.33;;;;;;;5.18;82.07;94553.97;5007958;28;20190;-47
2021/01/22 05:51:08;;;;;;;3.70;1.70;;;;;;;5.11;82.04;94540.75;5006531;28;20089;-50
2021/01/22 05:53:43;;;;;;;5.22;1.88;;;;;;;5.02;82.20;94539.06;5008733;28;20061;-47
2021/01/22 05:56:12;;;;;;;5.38;2.03;;;;;;;4.89;83.33;94539.53;5003826;28;20054;-46
2021/01/22 05:58:40;;;;;;;5.28;2.55;;;;;;;4.69;84.44;94535.50;5007443;28;20061;-51
2021/01/22 06:01:10;;;;;;;3.78;2.33;;;;;;;4.41;85.51;94540.09;5005205;28;20057;-48
2021/01/22 06:03:38;;;;;;;4.53;1.67;;;;;;;4.34;86.51;94539.09;5006782;28;20054;-47
2021/01/22 06:06:08;;;;;;;4.43;2.05;;;;;;;4.24;87.32;94547.81;5006516;28;20116;-49
2021/01/22 06:08:47;;;;;;;5.00;1.33;;;;;;;4.14;88.50;94551.50;5009720;28;20116;-51
2021/01/22 06:11:15;;;;;;;1.92;1.17;;;;;;;3.96;89.63;94551.53;5001653;28;20049;-51
2021/01/22 06:13:45;;;;;;;1.40;1.05;;;;;;;4.07;90.53;94559.13;5005842;28;20129;-50
2021/01/22 06:16:15;;;;;;;1.67;0.90;;;;;;;4.34;87.29;94555.56;5004455;28;20065;-47
2021/01/22 06:18:47;;;;;;;1.73;1.10;;;;;;;4.12;88.20;94546.41;5003103;28;20046;-49
2021/01/22 06:21:18;;;;;;;3.45;1.17;;;;;;;3.96;89.34;94523.66;4998783;28;20042;-51
2021/01/22 06:23:44;;;;;;;;;;;;;;;3.71;90.07;94517.44;5009230;28;20042;-49
2021/01/22 06:26:13;;;;;;;2.92;1.05;;;;;;;3.55;91.76;94512.91;5006167;28;20004;-49
2021/01/22 06:28:40;;;;;;;2.15;1.20;;;;;;;3.46;92.05;94502.56;5003899;28;20057;-49
2021/01/22 06:31:09;;;;;;;2.10;1.35;;;;;;;3.30;94.11;94511.03;5006090;28;20042;-46
2021/01/22 06:33:36;;;;;;;1.95;1.20;;;;;;;3.41;93.78;94502.22;5004047;28;20054;-52
2021/01/22 06:36:07;;;;;;;5.90;1.40;;;;;;;3.30;94.56;94509.28;5009515;28;20049;-48
2021/01/22 06:38:35;;;;;;;3.45;1.50;;;;;;;3.26;95.48;94500.09;5004015;28;20050;-46
2021/01/22 06:41:02;;;;;;;2.00;1.10;;;;;;;3.09;95.41;94503.50;5006151;28;20529;-54
2021/01/22 06:43:30;;;;;;;2.78;1.38;;;;;;;3.02;96.83;94503.28;5003562;28;20488;-48
2021/01/22 06:46:01;;;;;;;2.42;1.35;;;;;;;3.06;97.47;94509.00;5006376;28;20042;-47
2021/01/22 06:48:28;;;;;;;2.92;1.60;;;;;;;3.12;96.87;94515.41;5003832;28;20030;-47
2021/01/22 06:51:16;;;;;;;3.47;2.20;;;;;;;3.05;96.80;94515.19;5009436;28;20100;-47
2021/01/22 06:54:08;;;;;;;4.35;2.40;;;;;;;2.96;97.41;94522.09;5007602;28;20571;-47
2021/01/22 06:56:36;;;;;;;2.60;1.55;;;;;;;3.01;98.64;94526.88;5006943;28;20054;-47
2021/01/22 06:59:37;;;;;;;2.72;1.42;;;;;;;3.21;97.76;94525.78;5008647;28;20077;-48
2021/01/22 07:02:38;;;;;;;1.83;1.40;;;;;;;3.16;97.13;94529.78;5010461;28;20042;-48
2021/01/22 07:05:45;;;;;;;5.95;1.33;;;;;;;3.08;97.67;94526.13;5006895;28;20045;-49
2021/01/22 07:08:13;;;;;;;2.22;1.50;;;;;;;3.11;97.86;94532.03;5011697;28;20049;-48
2021/01/22 07:10:57;;;;;;;53.65;20.30;;;;;;;3.05;98.16;94536.84;5007387;28;20080;-47
2021/01/22 07:13:34;;;;;;;68.35;31.20;;;;;;;3.12;97.94;94539.66;5009466;28;20065;-48
2021/01/22 07:16:02;;;;;;;89.47;35.20;;;;;;;3.26;97.55;94531.34;5009524;28;20038;-53
2021/01/22 07:18:29;;;;;;;141.93;58.90;;;;;;;3.50;95.56;94535.97;5011591;28;20049;-49
2021/01/22 07:21:30;;;;;;;67.85;40.47;;;;;;;3.89;92.46;94542.66;5011939;28;20100;-50
2021/01/22 07:23:59;;;;;;;5.05;3.78;;;;;;;4.26;89.29;94542.44;5007794;28;20116;-50
2021/01/22 07:26:33;;;;;;;11.48;8.73;;;;;;;4.37;87.35;94555.25;5009917;28;20048;-51
2021/01/22 07:29:20;;;;;;;2.92;1.85;;;;;;;4.53;86.34;94564.94;5004245;28;20109;-47
2021/01/22 07:31:56;;;;;;;4.10;1.77;;;;;;;4.69;85.08;94559.00;5009446;28;20081;-47
2021/01/22 07:34:43;;;;;;;3.80;1.90;;;;;;;4.89;84.27;94564.81;5007709;28;20046;-50
2021/01/22 07:37:11;;;;;;;4.60;2.17;;;;;;;5.02;83.17;94564.38;5002793;28;20042;-51
2021/01/22 07:39:42;;;;;;;5.90;2.65;;;;;;;5.13;82.27;94556.28;5007706;28;20057;-49
2021/01/22 07:42:10;;;;;;;;;;;;;;;5.15;81.85;94568.16;5010122;28;20417;-48
2021/01/22 07:44:43;;;;;;;10.45;5.32;;;;;;;5.09;81.93;94560.16;5008614;28;19921;-51
2021/01/22 07:47:10;;;;;;;4.53;2.63;;;;;;;5.24;80.77;94563.81;5002016;28;20508;-51
2021/01/22 07:49:55;;;;;;;4.35;2.15;;;;;;;5.28;80.02;94559.09;5010436;28;20057;-50
2021/01/22 07:52:22;;;;;;;1.70;1.15;;;;;;;5.48;79.01;94566.47;5009104;28;20544;-50
2021/01/22 07:54:49;;;;;;;3.10;1.40;;;;;;;5.54;78.58;94564.19;5009136;28;20046;-48
2021/01/22 07:57:18;;;;;;;1.77;1.20;;;;;;;5.55;78.40;94564.03;5006457;28;20069;-50
2021/01/22 07:59:47;;;;;;;3.92;1.50;;;;;;;5.66;77.48;94562.91;5009463;28;20108;-50
2021/01/22 08:02:15;;;;;;;5.75;1.60;;;;;;;5.69;77.58;94560.00;5006060;28;20455;-52
2021/01/22 08:04:44;;;;;;;6.13;1.42;;;;;;;5.94;76.44;94564.28;5007536;28;20046;-51
2021/01/22 08:07:12;;;;;;;3.53;1.52;;;;;;;6.18;75.04;94566.06;5005161;28;20033;-49
2021/01/22 08:09:51;;;;;;;4.15;1.42;;;;;;;6.23;74.12;94559.53;5008344;28;20049;-49
2021/01/22 08:12:19;;;;;;;4.05;1.15;;;;;;;6.46;73.18;94550.03;4999984;28;20527;-51
2021/01/22 08:14:46;;;;;;;2.22;1.10;;;;;;;6.68;72.00;94539.84;5010790;28;20054;-48
2021/01/22 08:17:14;;;;;;;1.92;1.10;;;;;;;6.71;72.08;94548.19;5005311;28;20137;-50
2021/01/22 08:19:41;;;;;;;1.90;1.10;;;;;;;6.36;73.28;94552.00;5008200;28;20121;-50
2021/01/22 08:22:08;;;;;;;2.28;1.25;;;;;;;6.25;73.90;94549.72;5006989;28;20057;-51
2021/01/22 08:24:36;;;;;;;1.45;1.10;;;;;;;6.54;73.09;94546.59;5008130;28;20625;-50
2021/01/22 08:27:04;;;;;;;1.90;1.20;;;;;;;6.47;72.57;94538.59;5008355;28;20045;-53
2021/01/22 08:29:34;;;;;;;2.50;1.40;;;;;;;6.32;73.35;94542.84;5008259;28;20042;-49
2021/01/22 08:32:04;;;;;;;3.05;1.63;;;;;;;6.23;73.96;94541.22;5004683;28;20516;-49
2021/01/22 08:34:33;;;;;;;2.90;1.70;;;;;;;6.18;74.54;94550.38;5009522;28;20069;-49
2021/01/22 08:37:01;;;;;;;3.08;1.50;;;;;;;6.28;73.87;94550.22;5007103;28;20053;-52
2021/01/22 08:39:46;;;;;;;5.10;1.90;;;;;;;6.30;73.83;94543.03;5008026;28;20092;-53
2021/01/22 08:42:14;;;;;;;3.42;1.60;;;;;;;6.45;73.14;94540.53;4998500;28;20104;-49
2021/01/22 08:44:56;;;;;;;3.30;1.40;;;;;;;6.46;73.45;94539.53;5010256;28;20069;-48
2021/01/22 08:47:23;;;;;;;2.90;1.90;;;;;;;6.52;73.00;94536.25;5006851;28;20050;-52
2021/01/22 08:49:55;;;;;;;5.72;1.80;;;;;;;6.76;71.51;94534.56;5008698;28;20060;-52
2021/01/22 08:52:22;;;;;;;5.03;1.63;;;;;;;7.03;70.68;94533.34;5005422;28;20045;-53
2021/01/22 08:54:53;;;;;;;3.38;1.90;;;;;;;7.17;69.37;94527.38;5006757;28;20065;-50
2021/01/22 08:57:20;;;;;;;4.28;1.65;;;;;;;7.63;67.62;94526.63;5002583;28;20049;-49
2021/01/22 08:59:48;;;;;;;3.22;1.80;;;;;;;8.19;65.01;94535.03;5008542;28;20813;-53
2021/01/22 09:02:34;;;;;;;4.55;1.83;;;;;;;8.75;62.69;94525.84;5007701;28;20526;-54
2021/01/22 09:05:07;;;;;;;3.05;1.40;;;;;;;8.97;61.60;94526.72;5006912;28;20069;-53
2021/01/22 09:07:34;;;;;;;3.00;1.50;;;;;;;9.15;61.16;94522.91;5009399;28;20104;-52
2021/01/22 09:10:02;;;;;;;4.70;1.60;;;;;;;9.17;60.40;94526.19;5005473;28;20053;-51
2021/01/22 09:12:30;;;;;;;3.50;1.30;;;;;;;9.37;59.40;94521.16;5008292;28;20080;-53
2021/01/22 09:14:59;;;;;;;3.03;1.50;;;;;;;8.75;60.08;94522.41;5007417;28;20060;-48
2021/01/22 09:17:35;;;;;;;3.97;1.67;;;;;;;8.48;61.16;94524.63;5008846;28;20053;-53
2021/01/22 09:20:14;;;;;;;4.95;1.90;;;;;;;8.66;60.64;94523.47;5004566;28;20057;-53
2021/01/22 09:22:41;;;;;;;3.00;1.58;;;;;;;8.65;60.54;94527.91;5005114;28;20049;-54
2021/01/22 09:25:10;;;;;;;2.88;1.30;;;;;;;8.72;59.85;94522.75;5004482;28;20349;-52
2021/01/22 09:27:39;;;;;;;;;;;;;;;8.72;59.92;94528.81;5009647;28;20046;-50
2021/01/22 09:30:08;;;;;;;4.55;1.48;;;;;;;8.71;59.75;94532.47;5006691;28;19960;-55
2021/01/22 09:32:36;;;;;;;4.03;1.60;;;;;;;8.79;59.42;94529.72;5008873;28;20045;-52
2021/01/22 09:35:03;;;;;;;5.10;1.65;;;;;;;8.91;59.31;94527.47;5004182;28;20045;-48
2021/01/22 09:37:30;;;;;;;3.55;1.60;;;;;;;8.92;59.01;94517.78;5008638;28;20045;-52
2021/01/22 09:39:57;;;;;;;2.70;1.48;;;;;;;8.94;58.58;94510.50;5005721;28;20453;-50
2021/01/22 09:42:24;;;;;;;3.88;1.40;;;;;;;9.13;57.75;94509.97;5007139;28;20041;-49
2021/01/22 09:44:51;;;;;;;5.10;1.58;;;;;;;9.11;57.70;94506.69;5006714;28;20046;-55
2021/01/22 09:47:18;;;;;;;2.95;1.48;;;;;;;9.01;57.91;94500.91;5007104;28;20092;-55
2021/01/22 09:49:47;;;;;;;3.50;1.50;;;;;;;8.95;58.34;94504.28;5005255;28;20663;-53
2021/01/22 09:52:14;;;;;;;5.90;1.95;;;;;;;8.90;58.21;94499.53;5006499;28;20046;-50
2021/01/22 09:54:43;;;;;;;4.15;1.50;;;;;;;8.52;59.27;94499.63;5004937;28;20092;-48
2021/01/22 09:57:09;;;;;;;3.38;1.30;;;;;;;8.61;59.18;94499.56;5000736;28;20037;-54
2021/01/22 09:59:37;;;;;;;3.80;1.70;;;;;;;8.83;58.32;94488.13;5009955;28;20580;-51
2021/01/22 10:02:04;;;;;;;2.30;1.42;;;;;;;8.86;57.97;94481.72;5004519;28;20038;-51
2021/01/22 10:04:31;;;;;;;2.30;1.27;;;;;;;8.93;58.53;94477.34;5006986;28;20516;-50
2021/01/22 10:06:59;;;;;;;2.58;1.20;;;;;;;8.97;58.18;94468.09;5005953;28;20527;-51
2021/01/22 10:09:26;;;;;;;1.83;1.20;;;;;;;9.21;57.78;94459.06;5007722;28;20046;-50
2021/01/22 10:11:53;;;;;;;3.70;1.48;;;;;;;9.33;57.27;94454.16;5005846;28;20038;-51
2021/01/22 10:14:20;;;;;;;3.38;1.70;;;;;;;9.55;56.36;94457.59;5007385;28;20053;-55
2021/01/22 10:16:47;;;;;;;4.07;1.20;;;;;;;9.22;57.57;94456.28;5004093;28;20050;-50
2021/01/22 10:19:15;;;;;;;2.90;1.50;;;;;;;9.20;57.40;94449.56;5008088;28;20523;-52
2021/01/22 10:21:42;;;;;;;9.68;3.70;;;;;;;9.45;56.70;94450.00;5005269;28;20038;-54
2021/01/22 10:24:10;;;;;;;2.95;1.45;;;;;;;9.33;56.97;94444.44;5008784;28;20057;-50
2021/01/22 10:26:37;;;;;;;4.07;1.63;;;;;;;9.63;56.34;94442.50;5007743;28;20058;-53
2021/01/22 10:29:04;;;;;;;2.92;1.50;;;;;;;9.38;56.59;94444.69;5010249;28;20554;-54
2021/01/22 10:31:31;;;;;;;5.78;3.00;;;;;;;8.83;58.73;94434.75;5008581;28;20038;-54
2021/01/22 10:33:59;;;;;;;2.47;1.40;;;;;;;9.39;57.35;94438.41;5010308;28;20515;-52
2021/01/22 10:36:26;;;;;;;3.83;2.10;;;;;;;9.64;56.20;94425.72;5008525;28;20396;-51
2021/01/22 10:38:53;;;;;;;8.88;3.05;;;;;;;9.96;55.27;94423.56;5012841;28;20065;-50
2021/01/22 10:41:21;;;;;;;2.70;1.63;;;;;;;9.86;56.29;94421.25;5010276;28;20099;-52
2021/01/22 10:43:48;;;;;;;2.30;1.48;;;;;;;9.66;56.62;94420.25;5009321;28;20037;-52
2021/01/22 10:46:15;;;;;;;109.60;53.00;;;;;;;9.61;57.31;94420.84;5010462;28;20042;-51
2021/01/22 10:48:42;;;;;;;7.43;3.40;;;;;;;9.93;56.39;94414.22;5008043;28;20054;-51
2021/01/22 10:51:09;;;;;;;2.75;1.23;;;;;;;10.01;56.45;94413.25;5010751;28;20048;-53
2021/01/22 10:53:36;;;;;;;5.28;1.42;;;;;;;9.93;56.73;94405.50;5011247;28;20073;-51
2021/01/22 10:56:03;;;;;;;4.05;1.35;;;;;;;9.64;58.04;94407.31;5009916;28;20048;-53
2021/01/22 10:58:31;;;;;;;4.47;1.60;;;;;;;9.83;57.64;94413.72;5008927;28;20073;-49
2021/01/22 11:00:58;;;;;;;5.40;2.03;;;;;;;10.05;58.41;94409.25;5009554;28;20050;-51
2021/01/22 11:03:27;;;;;;;2.42;1.25;;;;;;;10.32;57.10;94409.44;5006290;28;20125;-51
2021/01/22 11:05:54;;;;;;;3.20;1.23;;;;;;;10.62;55.74;94397.66;5013821;28;20076;-48
2021/01/22 11:08:22;;;;;;;4.07;1.40;;;;;;;11.25;53.32;94389.56;5007120;28;20404;-49
2021/01/22 11:10:49;;;;;;;2.03;1.02;;;;;;;11.59;52.02;94385.94;5011176;28;20133;-53
2021/01/22 11:13:16;;;;;;;1.60;0.93;;;;;;;11.30;52.94;94373.94;5006849;28;20385;-51
2021/01/22 11:15:44;;;;;;;4.75;1.10;;;;;;;10.89;53.77;94376.69;5009635;28;20064;-54
2021/01/22 11:18:11;;;;;;;1.40;0.60;;;;;;;10.77;54.55;94373.81;5007162;28;20038;-48
2021/01/22 11:20:40;;;;;;;1.65;0.93;;;;;;;10.82;54.78;94367.94;5011855;28;20057;-52
2021/01/22 11:23:07;;;;;;;5.18;1.00;;;;;;;10.58;54.90;94364.78;5006877;28;20042;-48
2021/01/22 11:25:34;;;;;;;1.60;0.80;;;;;;;10.32;55.39;94357.56;5009867;28;20512;-54
2021/01/22 11:28:02;;;;;;;0.98;0.65;;;;;;;10.33;55.08;94340.78;5010804;28;20056;-51
2021/01/22 11:30:29;;;;;;;1.15;0.70;;;;;;;10.26;55.73;94336.47;5006582;28;20054;-50
2021/01/22 11:32:58;;;;;;;2.30;0.63;;;;;;;10.33;55.26;94326.78;5012787;28;20046;-49
2021/01/22 11:35:26;;;;;;;2.00;0.73;;;;;;;10.48;54.91;94327.44;5006480;28;20044;-49
2021/01/22 11:37:53;;;;;;;2.22;0.43;;;;;;;10.53;54.42;94332.13;5009246;28;20073;-48
2021/01/22 11:40:20;;;;;;;0.50;0.47;;;;;;;10.64;54.42;94326.31;5007399;28;20049;-50
2021/01/22 11:42:47;;;;;;;0.80;0.60;;;;;;;10.44;55.14;94334.94;5009204;28;20462;-52
2021/01/22 11:45:15;;;;;;;1.27;0.60;;;;;;;10.52;55.20;94322.59;5005086;28;20050;-50